createdAt,value
2019-03-18T00:00:14.462Z,99251.04
2019-03-18T00:02:42.847Z,99257.26
2019-03-18T00:05:11.408Z,99250.84
2019-03-18T00:07:39.792Z,99250.09
2019-03-18T00:10:08.815Z,99242.35
2019-03-18T00:12:37.232Z,99247.20
2019-03-18T00:15:08.052Z,99248.59
2019-03-18T00:17:36.437Z,99253.51
2019-03-18T00:20:06.875Z,99256.30
2019-03-18T00:22:35.259Z,99266.92
2019-03-18T00:25:05.403Z,99269.47
2019-03-18T00:27:33.791Z,99255.52
2019-03-18T00:30:02.177Z,99249.98
2019-03-18T00:32:30.563Z,99253.05
2019-03-18T00:34:58.943Z,99254.84
2019-03-18T00:37:27.521Z,99252.78
2019-03-18T00:39:55.895Z,99251.12
2019-03-18T00:42:24.291Z,99252.48
2019-03-18T00:44:52.708Z,99249.59
2019-03-18T00:47:21.087Z,99251.39
2019-03-18T00:49:49.489Z,99254.09
2019-03-18T00:52:17.883Z,99254.31
2019-03-18T00:54:46.274Z,99251.11
2019-03-18T00:57:14.657Z,99250.80
2019-03-18T00:59:43.050Z,99254.66
2019-03-18T01:02:11.420Z,99253.23
2019-03-18T01:04:39.838Z,99252.91
2019-03-18T01:07:08.222Z,99248.11
2019-03-18T01:09:36.611Z,99249.45
2019-03-18T01:12:05.104Z,99244.27
2019-03-18T01:14:33.485Z,99243.02
2019-03-18T01:17:01.872Z,99243.96
2019-03-18T01:19:30.360Z,99241.80
2019-03-18T01:21:58.733Z,99239.28
2019-03-18T01:24:27.495Z,99244.34
2019-03-18T01:26:56.122Z,99248.29
2019-03-18T01:29:24.513Z,99249.72
2019-03-18T01:31:52.892Z,99246.66
2019-03-18T01:34:21.563Z,99243.88
2019-03-18T01:36:49.947Z,99243.67
2019-03-18T01:39:18.346Z,99250.19
2019-03-18T01:41:47.175Z,99244.98
2019-03-18T01:44:15.558Z,99247.88
2019-03-18T01:46:43.954Z,99244.40
2019-03-18T01:49:12.349Z,99250.84
2019-03-18T01:51:40.739Z,99249.49
2019-03-18T01:54:09.302Z,99246.61
2019-03-18T01:56:37.685Z,99253.94
2019-03-18T01:59:06.346Z,99252.55
2019-03-18T02:01:34.742Z,99261.68
2019-03-18T02:04:03.131Z,99260.69
2019-03-18T02:06:31.712Z,99269.73
2019-03-18T02:09:00.095Z,99268.83
2019-03-18T02:11:28.484Z,99274.27
2019-03-18T02:13:56.883Z,99284.43
2019-03-18T02:16:25.287Z,99290.81
2019-03-18T02:18:53.987Z,99300.23
2019-03-18T02:21:22.380Z,99304.20
2019-03-18T02:23:50.759Z,99302.44
2019-03-18T02:26:19.537Z,99302.80
2019-03-18T02:28:47.917Z,99310.16
2019-03-18T02:31:16.312Z,99307.02
2019-03-18T02:33:44.708Z,99309.08
2019-03-18T02:36:13.097Z,99314.33
2019-03-18T02:38:41.481Z,99317.80
2019-03-18T02:41:10.028Z,99320.95
2019-03-18T02:43:38.404Z,99317.53
2019-03-18T02:46:10.471Z,99321.20
2019-03-18T02:48:36.996Z,99324.56
2019-03-18T02:51:05.456Z,99323.81
2019-03-18T02:53:33.777Z,99323.01
2019-03-18T02:56:02.180Z,99325.34
2019-03-18T02:58:30.565Z,99328.66
2019-03-18T03:00:58.963Z,99328.21
2019-03-18T03:03:27.339Z,99331.86
2019-03-18T03:05:55.722Z,99328.31
2019-03-18T03:08:24.114Z,99328.53
2019-03-18T03:10:54.128Z,99329.55
2019-03-18T03:13:22.474Z,99337.23
2019-03-18T03:15:50.875Z,99341.89
2019-03-18T03:18:19.260Z,99337.14
2019-03-18T03:20:47.658Z,99332.27
2019-03-18T03:23:16.544Z,99333.53
2019-03-18T03:25:44.937Z,99331.86
2019-03-18T03:28:13.308Z,99338.74
2019-03-18T03:30:41.814Z,99338.92
2019-03-18T03:33:10.431Z,99343.84
2019-03-18T03:35:38.846Z,99350.77
2019-03-18T03:38:07.235Z,99359.69
2019-03-18T03:40:35.626Z,99366.86
2019-03-18T03:43:04.148Z,99362.95
2019-03-18T03:45:32.525Z,99375.13
2019-03-18T03:48:00.909Z,99369.37
2019-03-18T03:50:29.308Z,99378.58
2019-03-18T03:52:57.693Z,99382.95
2019-03-18T03:55:26.084Z,99387.25
2019-03-18T03:57:54.602Z,99380.64
2019-03-18T04:00:23.063Z,99382.73
2019-03-18T04:02:51.571Z,99389.56
2019-03-18T04:05:20.008Z,99387.59
2019-03-18T04:07:48.351Z,99389.59
2019-03-18T04:10:16.734Z,99400.82
2019-03-18T04:12:45.120Z,99395.16
2019-03-18T04:15:14.673Z,99397.59
2019-03-18T04:17:43.034Z,99402.31
2019-03-18T04:20:15.961Z,99409.77
2019-03-18T04:22:44.657Z,99412.64
2019-03-18T04:25:13.118Z,99412.64
2019-03-18T04:27:41.996Z,99417.80
2019-03-18T04:30:14.450Z,99421.77
2019-03-18T04:32:42.849Z,99426.06
2019-03-18T04:35:11.206Z,99433.88
2019-03-18T04:37:39.576Z,99434.73
2019-03-18T04:40:09.709Z,99432.13
2019-03-18T04:42:38.098Z,99432.52
2019-03-18T04:45:07.997Z,99438.24
2019-03-18T04:47:36.376Z,99438.44
2019-03-18T04:50:07.026Z,99439.56
2019-03-18T04:52:35.443Z,99447.03
2019-03-18T04:55:04.796Z,99448.78
2019-03-18T04:57:33.180Z,99453.89
2019-03-18T05:00:01.572Z,99448.73
2019-03-18T05:02:29.952Z,99453.50
2019-03-18T05:04:58.348Z,99451.38
2019-03-18T05:07:26.740Z,99456.20
2019-03-18T05:09:55.122Z,99458.22
2019-03-18T05:12:23.511Z,99457.23
2019-03-18T05:14:51.916Z,99456.02
2019-03-18T05:17:26.553Z,99460.48
2019-03-18T05:19:50.423Z,99453.67
2019-03-18T05:22:18.804Z,99447.91
2019-03-18T05:24:47.180Z,99456.28
2019-03-18T05:27:15.590Z,99463.64
2019-03-18T05:29:43.968Z,99455.27
2019-03-18T05:32:12.343Z,99466.70
2019-03-18T05:34:40.744Z,99471.27
2019-03-18T05:37:09.121Z,99478.69
2019-03-18T05:39:37.907Z,99489.62
2019-03-18T05:42:06.297Z,99489.57
2019-03-18T05:44:34.670Z,99494.08
2019-03-18T05:47:03.061Z,99497.65
2019-03-18T05:49:31.439Z,99499.05
2019-03-18T05:51:59.854Z,99504.00
2019-03-18T05:54:28.248Z,99508.03
2019-03-18T05:56:56.623Z,99506.81
2019-03-18T05:59:25.936Z,99513.48
2019-03-18T06:01:54.337Z,99523.76
2019-03-18T06:04:22.711Z,99521.61
2019-03-18T06:06:51.623Z,99522.45
2019-03-18T06:09:20.000Z,99528.33
2019-03-18T06:11:48.380Z,99528.53
2019-03-18T06:14:16.855Z,99526.28
2019-03-18T06:16:45.229Z,99531.50
2019-03-18T06:19:13.622Z,99533.20
2019-03-18T06:21:42.007Z,99530.45
2019-03-18T06:24:10.386Z,99532.09
2019-03-18T06:26:38.808Z,99542.13
2019-03-18T06:29:07.197Z,99543.14
2019-03-18T06:31:35.584Z,99547.05
2019-03-18T06:34:03.987Z,99556.19
2019-03-18T06:36:32.384Z,99557.08
2019-03-18T06:39:00.763Z,99558.53
2019-03-18T06:41:29.326Z,99559.78
2019-03-18T06:43:57.721Z,99563.70
2019-03-18T06:46:26.112Z,99558.02
2019-03-18T06:48:54.869Z,99559.42
2019-03-18T06:51:23.244Z,99559.84
2019-03-18T06:53:51.622Z,99564.20
2019-03-18T06:56:20.113Z,99578.52
2019-03-18T06:58:48.503Z,99576.09
2019-03-18T07:01:16.872Z,99588.08
2019-03-18T07:03:45.272Z,99593.12
2019-03-18T07:06:13.654Z,99589.95
2019-03-18T07:08:42.059Z,99592.61
2019-03-18T07:11:10.461Z,99600.36
2019-03-18T07:13:38.843Z,99602.88
2019-03-18T07:16:07.243Z,99598.50
2019-03-18T07:18:35.624Z,99605.42
2019-03-18T07:21:04.314Z,99607.28
2019-03-18T07:23:32.700Z,99610.89
2019-03-18T07:26:01.096Z,99620.48
2019-03-18T07:28:29.488Z,99613.30
2019-03-18T07:30:57.880Z,99613.14
2019-03-18T07:33:27.088Z,99611.89
2019-03-18T07:35:55.477Z,99604.55
2019-03-18T07:38:23.863Z,99609.55
2019-03-18T07:40:52.253Z,99622.40
2019-03-18T07:43:20.637Z,99622.00
2019-03-18T07:45:49.406Z,99622.77
2019-03-18T07:48:30.020Z,99632.63
2019-03-18T07:50:47.965Z,99635.00
2019-03-18T07:53:18.289Z,99629.92
2019-03-18T07:55:46.494Z,99627.77
2019-03-18T07:58:14.872Z,99627.97
2019-03-18T08:00:43.723Z,99627.83
2019-03-18T08:03:12.056Z,99630.59
2019-03-18T08:05:40.447Z,99625.27
2019-03-18T08:08:08.862Z,99623.48
2019-03-18T08:10:37.245Z,99633.38
2019-03-18T08:13:05.642Z,99647.17
2019-03-18T08:15:34.062Z,99658.64
2019-03-18T08:18:02.440Z,99661.65
2019-03-18T08:20:30.827Z,99661.61
2019-03-18T08:22:59.336Z,99666.54
2019-03-18T08:25:27.711Z,99675.95
2019-03-18T08:27:56.101Z,99682.83
2019-03-18T08:30:24.595Z,99681.48
2019-03-18T08:32:52.989Z,99681.25
2019-03-18T08:35:21.363Z,99688.55
2019-03-18T08:37:49.747Z,99685.36
2019-03-18T08:40:18.413Z,99691.23
2019-03-18T08:42:46.828Z,99688.95
2019-03-18T08:45:15.211Z,99693.05
2019-03-18T08:47:43.613Z,99698.89
2019-03-18T08:50:12.973Z,99696.50
2019-03-18T08:52:41.475Z,99699.80
2019-03-18T08:55:10.901Z,99698.27
2019-03-18T08:57:39.305Z,99709.54
2019-03-18T09:00:11.064Z,99709.65
2019-03-18T09:02:39.731Z,99712.15
2019-03-18T09:05:09.551Z,99721.84
2019-03-18T09:07:37.943Z,99720.67
2019-03-18T09:10:13.905Z,99720.05
2019-03-18T09:12:42.609Z,99716.56
2019-03-18T09:15:11.834Z,99719.92
2019-03-18T09:17:40.211Z,99721.61
2019-03-18T09:20:16.960Z,99723.20
2019-03-18T09:22:45.353Z,99728.16
2019-03-18T09:25:13.810Z,99721.09
2019-03-18T09:27:42.389Z,99728.25
2019-03-18T09:30:16.027Z,99730.92
2019-03-18T09:32:44.420Z,99733.20
2019-03-18T09:35:12.899Z,99736.46
2019-03-18T09:37:41.285Z,99736.66
2019-03-18T09:40:11.407Z,99736.73
2019-03-18T09:42:39.819Z,99741.95
2019-03-18T09:45:10.806Z,99746.65
2019-03-18T09:47:39.526Z,99743.20
2019-03-18T09:50:10.053Z,99741.13
2019-03-18T09:52:38.436Z,99746.92
2019-03-18T09:55:07.860Z,99751.77
2019-03-18T09:57:36.595Z,99755.17
2019-03-18T10:00:18.896Z,99754.53
2019-03-18T10:02:47.304Z,99756.27
2019-03-18T10:05:15.692Z,99755.19
2019-03-18T10:07:44.083Z,99759.50
2019-03-18T10:10:13.932Z,99770.08
2019-03-18T10:12:42.312Z,99765.86
2019-03-18T10:15:20.893Z,99763.12
2019-03-18T10:17:49.316Z,99770.55
2019-03-18T10:20:17.648Z,99766.43
2019-03-18T10:22:46.078Z,99765.56
2019-03-18T10:25:14.432Z,99752.65
2019-03-18T10:27:42.837Z,99756.28
2019-03-18T10:30:15.379Z,99759.39
2019-03-18T10:32:43.755Z,99759.70
2019-03-18T10:35:12.279Z,99766.56
2019-03-18T10:37:40.680Z,99763.75
2019-03-18T10:40:13.042Z,99768.81
2019-03-18T10:42:41.488Z,99766.90
2019-03-18T10:45:11.615Z,99767.42
2019-03-18T10:47:40.021Z,99779.91
2019-03-18T10:50:10.725Z,99772.13
2019-03-18T10:52:39.241Z,99783.03
2019-03-18T10:55:09.363Z,99780.14
2019-03-18T10:57:37.735Z,99783.61
2019-03-18T11:00:12.085Z,99783.70
2019-03-18T11:02:40.469Z,99780.70
2019-03-18T11:05:09.641Z,99778.19
2019-03-18T11:07:38.020Z,99776.33
2019-03-18T11:10:12.671Z,99770.55
2019-03-18T11:12:41.521Z,99764.97
2019-03-18T11:15:13.001Z,99755.84
2019-03-18T11:17:41.520Z,99750.53
2019-03-18T11:20:14.180Z,99759.32
2019-03-18T11:22:42.640Z,99765.92
2019-03-18T11:25:12.347Z,99772.52
2019-03-18T11:27:40.723Z,99765.99
2019-03-18T11:30:20.248Z,99770.00
2019-03-18T11:32:48.641Z,99772.16
2019-03-18T11:35:17.034Z,99779.66
2019-03-18T11:37:45.498Z,99787.58
2019-03-18T11:40:21.938Z,99776.59
2019-03-18T11:42:50.901Z,99793.70
2019-03-18T11:45:19.259Z,99796.81
2019-03-18T11:47:47.716Z,99795.80
2019-03-18T11:50:19.731Z,99801.78
2019-03-18T11:52:48.205Z,99800.04
2019-03-18T11:55:25.044Z,99802.70
2019-03-18T11:57:53.496Z,99796.56
2019-03-18T12:00:24.252Z,99793.19
2019-03-18T12:02:52.694Z,99790.70
2019-03-18T12:05:27.411Z,99789.95
2019-03-18T12:07:55.833Z,99790.53
2019-03-18T12:10:25.926Z,99782.30
2019-03-18T12:12:54.645Z,99782.27
2019-03-18T12:15:26.830Z,99782.27
2019-03-18T12:17:55.288Z,99778.76
2019-03-18T12:20:25.406Z,99816.03
2019-03-18T12:22:53.889Z,99819.44
2019-03-18T12:25:22.351Z,99836.71
2019-03-18T12:27:50.746Z,99832.53
2019-03-18T12:30:24.623Z,99826.49
2019-03-18T12:32:53.373Z,99812.78
2019-03-18T12:35:21.923Z,99815.48
2019-03-18T12:37:50.450Z,99809.29
2019-03-18T12:40:19.177Z,99809.97
2019-03-18T12:42:47.626Z,99806.55
2019-03-18T12:45:16.959Z,99798.69
2019-03-18T12:47:45.428Z,99801.11
2019-03-18T12:50:18.468Z,99796.31
2019-03-18T12:52:47.038Z,99794.52
2019-03-18T12:55:15.572Z,99790.22
2019-03-18T12:57:44.033Z,99781.45
2019-03-18T13:00:18.151Z,99778.34
2019-03-18T13:02:46.687Z,99771.73
2019-03-18T13:05:15.128Z,99774.35
2019-03-18T13:07:43.537Z,99773.91
2019-03-18T13:10:20.929Z,99757.61
2019-03-18T13:12:47.591Z,99758.48
2019-03-18T13:15:19.854Z,99771.33
2019-03-18T13:17:48.232Z,99759.50
2019-03-18T13:20:20.559Z,99756.87
2019-03-18T13:22:48.966Z,99753.77
2019-03-18T13:25:17.424Z,99752.46
2019-03-18T13:27:45.899Z,99744.50
2019-03-18T13:30:17.072Z,99745.39
2019-03-18T13:32:45.738Z,99734.84
2019-03-18T13:35:14.390Z,99743.64
2019-03-18T13:37:42.788Z,99752.46
2019-03-18T13:40:16.010Z,99750.70
2019-03-18T13:42:44.471Z,99757.73
2019-03-18T13:45:20.042Z,99758.17
2019-03-18T13:47:48.605Z,99751.13
2019-03-18T13:50:21.956Z,99746.72
2019-03-18T13:52:50.423Z,99754.62
2019-03-18T13:55:18.924Z,99754.20
2019-03-18T13:57:47.301Z,99752.88
2019-03-18T14:00:20.708Z,99760.83
2019-03-18T14:02:49.427Z,99765.69
2019-03-18T14:05:17.824Z,99760.41
2019-03-18T14:07:58.993Z,99757.30
2019-03-18T14:10:23.574Z,99758.64
2019-03-18T14:12:52.026Z,99760.38
2019-03-18T14:15:24.350Z,99760.38
2019-03-18T14:17:53.013Z,99763.03
2019-03-18T14:20:23.142Z,99765.67
2019-03-18T14:22:51.643Z,99765.66
2019-03-18T14:25:20.043Z,99765.23
2019-03-18T14:27:48.419Z,99759.97
2019-03-18T14:30:17.753Z,99767.45
2019-03-18T14:32:46.210Z,99764.34
2019-03-18T14:35:15.052Z,99769.22
2019-03-18T14:37:43.433Z,99775.81
2019-03-18T14:40:25.646Z,99774.94
2019-03-18T14:42:54.029Z,99766.98
2019-03-18T14:45:24.218Z,99769.62
2019-03-18T14:47:52.696Z,99769.20
2019-03-18T14:50:21.071Z,99756.87
2019-03-18T14:52:49.476Z,99753.80
2019-03-18T14:55:19.470Z,99749.37
2019-03-18T14:57:47.960Z,99756.00
2019-03-18T15:00:23.700Z,99750.70
2019-03-18T15:02:52.095Z,99751.59
2019-03-18T15:05:20.543Z,99752.45
2019-03-18T15:07:48.964Z,99750.70
2019-03-18T15:10:18.797Z,99753.78
2019-03-18T15:12:47.189Z,99748.06
2019-03-18T15:15:17.343Z,99741.88
2019-03-18T15:17:45.742Z,99751.14
2019-03-18T15:20:18.667Z,99752.02
2019-03-18T15:22:47.718Z,99753.36
2019-03-18T15:25:26.491Z,99755.54
2019-03-18T15:27:54.876Z,99755.47
2019-03-18T15:30:23.445Z,99759.42
2019-03-18T15:32:51.856Z,99754.03
2019-03-18T15:35:20.225Z,99755.84
2019-03-18T15:37:48.651Z,99756.80
2019-03-18T15:40:19.523Z,99759.47
2019-03-18T15:42:47.973Z,99751.11
2019-03-18T15:45:18.024Z,99757.73
2019-03-18T15:47:46.429Z,99761.25
2019-03-18T15:50:27.472Z,99766.11
2019-03-18T15:52:55.853Z,99770.95
2019-03-18T15:55:24.683Z,99768.75
2019-03-18T15:57:53.127Z,99775.33
2019-03-18T16:00:24.037Z,99771.83
2019-03-18T16:02:53.006Z,99778.89
2019-03-18T16:05:21.393Z,99785.02
2019-03-18T16:07:49.786Z,99790.30
2019-03-18T16:10:19.240Z,99788.09
2019-03-18T16:12:47.637Z,99789.37
2019-03-18T16:15:17.894Z,99797.72
2019-03-18T16:17:46.389Z,99796.42
2019-03-18T16:20:23.218Z,99803.37
2019-03-18T16:22:51.607Z,99801.99
2019-03-18T16:25:20.118Z,99809.44
2019-03-18T16:27:48.505Z,99808.16
2019-03-18T16:30:21.689Z,99809.48
2019-03-18T16:32:50.216Z,99813.02
2019-03-18T16:35:18.777Z,99832.77
2019-03-18T16:37:47.148Z,99830.88
2019-03-18T16:40:19.058Z,99842.59
2019-03-18T16:42:47.448Z,99849.55
2019-03-18T16:45:16.980Z,99852.05
2019-03-18T16:47:45.673Z,99856.68
2019-03-18T16:50:17.124Z,99863.59
2019-03-18T16:52:45.502Z,99863.89
2019-03-18T16:55:13.974Z,99865.42
2019-03-18T16:57:42.384Z,99870.16
2019-03-18T17:00:16.800Z,99875.00
2019-03-18T17:02:45.577Z,99879.77
2019-03-18T17:05:14.308Z,99886.68
2019-03-18T17:07:42.765Z,99885.77
2019-03-18T17:10:15.316Z,99893.17
2019-03-18T17:12:44.033Z,99898.00
2019-03-18T17:15:20.337Z,99902.28
2019-03-18T17:17:49.097Z,99906.52
2019-03-18T17:20:17.817Z,99908.28
2019-03-18T17:22:50.404Z,99910.78
2019-03-18T17:25:22.348Z,99911.08
2019-03-18T17:27:50.730Z,99916.30
2019-03-18T17:30:20.156Z,99917.84
2019-03-18T17:32:49.035Z,99921.79
2019-03-18T17:35:17.414Z,99924.95
2019-03-18T17:37:45.806Z,99934.04
2019-03-18T17:40:15.538Z,99933.59
2019-03-18T17:42:43.995Z,99941.23
2019-03-18T17:45:14.688Z,99939.45
2019-03-18T17:47:43.078Z,99942.97
2019-03-18T17:50:19.589Z,99945.14
2019-03-18T17:53:01.013Z,99956.08
2019-03-18T17:55:18.387Z,99962.95
2019-03-18T17:57:46.887Z,99964.09
2019-03-18T18:00:18.043Z,99963.42
2019-03-18T18:02:46.434Z,99971.34
2019-03-18T18:05:14.928Z,99970.73
2019-03-18T18:07:43.394Z,99970.31
2019-03-18T18:10:12.152Z,99975.72
2019-03-18T18:12:40.719Z,99980.30
2019-03-18T18:15:12.439Z,99982.90
2019-03-18T18:17:40.803Z,99983.25
2019-03-18T18:20:11.687Z,99989.66
2019-03-18T18:22:41.129Z,99991.36
2019-03-18T18:25:11.163Z,99989.50
2019-03-18T18:27:40.810Z,99990.17
2019-03-18T18:30:14.514Z,99993.02
2019-03-18T18:32:43.051Z,100004.91
2019-03-18T18:35:12.296Z,100004.97
2019-03-18T18:37:40.684Z,100005.45
2019-03-18T18:40:20.220Z,100011.16
2019-03-18T18:42:48.623Z,100014.53
2019-03-18T18:45:17.005Z,100021.36
2019-03-18T18:47:45.509Z,100028.14
2019-03-18T18:50:14.935Z,100033.02
2019-03-18T18:52:43.320Z,100041.03
2019-03-18T18:55:13.745Z,100042.02
2019-03-18T18:57:42.204Z,100046.92
2019-03-18T19:00:15.655Z,100045.10
2019-03-18T19:02:44.569Z,100041.95
2019-03-18T19:05:14.957Z,100045.52
2019-03-18T19:07:43.992Z,100051.44
2019-03-18T19:10:15.459Z,100060.17
2019-03-18T19:12:43.919Z,100061.11
2019-03-18T19:15:15.364Z,100068.12
2019-03-18T19:17:43.775Z,100070.42
2019-03-18T19:20:13.702Z,100076.06
2019-03-18T19:22:42.084Z,100064.64
2019-03-18T19:25:12.650Z,100071.64
2019-03-18T19:27:41.038Z,100077.02
2019-03-18T19:30:23.578Z,100078.49
2019-03-18T19:32:51.969Z,100083.73
2019-03-18T19:35:20.693Z,100097.91
2019-03-18T19:37:49.321Z,100089.62
2019-03-18T19:40:19.819Z,100096.32
2019-03-18T19:42:48.195Z,100093.25
2019-03-18T19:45:16.693Z,100096.34
2019-03-18T19:47:45.082Z,100092.92
2019-03-18T19:50:18.781Z,100098.67
2019-03-18T19:52:47.176Z,100102.80
2019-03-18T19:55:15.569Z,100101.36
2019-03-18T19:57:43.979Z,100111.05
2019-03-18T20:00:15.358Z,100106.56
2019-03-18T20:02:43.821Z,100111.00
2019-03-18T20:05:15.704Z,100113.77
2019-03-18T20:07:42.441Z,100116.39
2019-03-18T20:10:13.278Z,100118.48
2019-03-18T20:12:41.776Z,100121.44
2019-03-18T20:15:12.914Z,100120.19
2019-03-18T20:17:41.306Z,100121.37
2019-03-18T20:20:18.092Z,100126.09
2019-03-18T20:22:46.542Z,100125.94
2019-03-18T20:25:15.076Z,100130.77
2019-03-18T20:27:43.477Z,100129.75
2019-03-18T20:30:17.205Z,100127.59
2019-03-18T20:32:45.619Z,100125.88
2019-03-18T20:35:16.296Z,100125.95
2019-03-18T20:37:44.685Z,100131.52
2019-03-18T20:40:15.088Z,100135.84
2019-03-18T20:42:43.542Z,100142.27
2019-03-18T20:45:23.037Z,100143.73
2019-03-18T20:47:51.438Z,100152.00
2019-03-18T20:50:23.274Z,100147.97
2019-03-18T20:52:52.447Z,100150.84
2019-03-18T20:55:20.973Z,100155.20
2019-03-18T20:57:49.364Z,100160.62
2019-03-18T21:00:22.502Z,100155.87
2019-03-18T21:02:50.893Z,100156.83
2019-03-18T21:05:19.412Z,100164.17
2019-03-18T21:07:47.844Z,100174.62
2019-03-18T21:10:17.375Z,100175.72
2019-03-18T21:12:45.933Z,100184.62
2019-03-18T21:15:15.367Z,100181.55
2019-03-18T21:17:43.831Z,100183.82
2019-03-18T21:20:22.069Z,100186.43
2019-03-18T21:22:50.528Z,100185.42
2019-03-18T21:25:18.915Z,100191.66
2019-03-18T21:27:47.428Z,100194.13
2019-03-18T21:30:22.735Z,100199.06
2019-03-18T21:32:51.301Z,100198.22
2019-03-18T21:35:19.690Z,100197.32
2019-03-18T21:37:48.081Z,100207.26
2019-03-18T21:40:20.824Z,100207.20
2019-03-18T21:42:51.260Z,100210.08
2019-03-18T21:45:23.181Z,100216.11
2019-03-18T21:47:50.862Z,100216.17
2019-03-18T21:50:19.439Z,100216.30
2019-03-18T21:52:47.830Z,100214.03
2019-03-18T21:55:17.170Z,100219.13
2019-03-18T21:57:45.574Z,100220.95
2019-03-18T22:00:16.470Z,100227.84
2019-03-18T22:02:45.220Z,100226.80
2019-03-18T22:05:13.750Z,100223.01
2019-03-18T22:07:42.141Z,100228.23
2019-03-18T22:10:21.363Z,100229.22
2019-03-18T22:12:50.045Z,100226.78
2019-03-18T22:15:18.418Z,100228.67
2019-03-18T22:17:46.914Z,100232.23
2019-03-18T22:20:16.141Z,100230.66
2019-03-18T22:22:44.599Z,100228.62
2019-03-18T22:25:14.554Z,100234.02
2019-03-18T22:27:43.181Z,100230.50
2019-03-18T22:30:14.122Z,100235.75
2019-03-18T22:32:42.526Z,100245.02
2019-03-18T22:35:11.377Z,100243.27
2019-03-18T22:37:39.796Z,100248.58
2019-03-18T22:40:14.068Z,100253.45
2019-03-18T22:42:42.460Z,100248.14
2019-03-18T22:45:13.209Z,100251.45
2019-03-18T22:47:41.597Z,100249.64
2019-03-18T22:50:11.730Z,100242.52
2019-03-18T22:52:40.147Z,100244.98
2019-03-18T22:55:11.227Z,100249.94
2019-03-18T22:57:39.689Z,100250.09
2019-03-18T23:00:21.568Z,100248.09
2019-03-18T23:02:50.207Z,100254.93
2019-03-18T23:05:18.683Z,100254.60
2019-03-18T23:07:47.092Z,100264.74
2019-03-18T23:10:15.492Z,100265.28
2019-03-18T23:12:43.904Z,100258.84
2019-03-18T23:15:12.647Z,100259.73
2019-03-18T23:17:41.031Z,100258.48
2019-03-18T23:20:09.807Z,100260.65
2019-03-18T23:22:38.232Z,100257.63
2019-03-18T23:25:08.198Z,100270.18
2019-03-18T23:27:37.022Z,100265.65
2019-03-18T23:30:13.569Z,100274.44
2019-03-18T23:32:41.975Z,100280.97
2019-03-18T23:35:10.496Z,100283.75
2019-03-18T23:37:40.429Z,100278.73
2019-03-18T23:40:12.933Z,100287.75
2019-03-18T23:42:41.322Z,100286.38
2019-03-18T23:45:11.247Z,100288.34
2019-03-18T23:47:39.733Z,100297.39
2019-03-18T23:50:15.472Z,100291.36
2019-03-18T23:52:43.852Z,100298.93
2019-03-18T23:55:19.180Z,100293.25
2019-03-18T23:57:42.368Z,100293.88
